sensor_id;sensor_type;location;lat;lon;timestamp;P1;P2;P0
57049;PMS7003;42935;50.966;16.992;2023-10-08T00:02:44;0;0;0
57049;PMS7003;42935;50.966;16.992;2023-10-08T00:06:02;0;0;0
57049;PMS7003;42935;50.966;16.992;2023-10-08T00:09:28;0;0;0
57049;PMS7003;42935;50.966;16.992;2023-10-08T00:12:51;5;1;1
57049;PMS7003;42935;50.966;16.992;2023-10-08T00:16:08;2;1;1
57049;PMS7003;42935;50.966;16.992;2023-10-08T00:19:33;2;1;0
57049;PMS7003;42935;50.966;16.992;2023-10-08T00:22:54;2;0;0
57049;PMS7003;42935;50.966;16.992;2023-10-08T00:26:12;4;1;1
57049;PMS7003;42935;50.966;16.992;2023-10-08T00:29:35;1;1;0
57049;PMS7003;42935;50.966;16.992;2023-10-08T00:32:58;0;0;0
57049;PMS7003;42935;50.966;16.992;2023-10-08T00:36:11;0;0;0
57049;PMS7003;42935;50.966;16.992;2023-10-08T00:39:30;0;0;0
57049;PMS7003;42935;50.966;16.992;2023-10-08T00:42:49;0;0;0
57049;PMS7003;42935;50.966;16.992;2023-10-08T00:46:11;0;0;0
57049;PMS7003;42935;50.966;16.992;2023-10-08T00:49:34;0;0;0
57049;PMS7003;42935;50.966;16.992;2023-10-08T00:53:04;0;0;0
57049;PMS7003;42935;50.966;16.992;2023-10-08T00:56:28;1;0;0
57049;PMS7003;42935;50.966;16.992;2023-10-08T00:59:56;1;1;1
57049;PMS7003;42935;50.966;16.992;2023-10-08T01:03:22;0;0;0
57049;PMS7003;42935;50.966;16.992;2023-10-08T01:06:38;0;0;0
57049;PMS7003;42935;50.966;16.992;2023-10-08T01:09:56;1;1;0
57049;PMS7003;42935;50.966;16.992;2023-10-08T01:13:23;2;0;0
57049;PMS7003;42935;50.966;16.992;2023-10-08T01:16:47;0;0;0
57049;PMS7003;42935;50.966;16.992;2023-10-08T01:20:03;0;0;0
57049;PMS7003;42935;50.966;16.992;2023-10-08T01:23:29;0;0;0
57049;PMS7003;42935;50.966;16.992;2023-10-08T01:26:43;0;0;0
57049;PMS7003;42935;50.966;16.992;2023-10-08T01:29:58;0;0;0
57049;PMS7003;42935;50.966;16.992;2023-10-08T01:33:22;0;0;0
57049;PMS7003;42935;50.966;16.992;2023-10-08T01:36:44;0;0;0
57049;PMS7003;42935;50.966;16.992;2023-10-08T01:40:01;0;0;0
57049;PMS7003;42935;50.966;16.992;2023-10-08T01:43:22;0;0;0
57049;PMS7003;42935;50.966;16.992;2023-10-08T01:46:39;0;0;0
57049;PMS7003;42935;50.966;16.992;2023-10-08T01:49:52;0;0;0
57049;PMS7003;42935;50.966;16.992;2023-10-08T01:53:16;0;0;0
57049;PMS7003;42935;50.966;16.992;2023-10-08T01:56:32;0;0;0
57049;PMS7003;42935;50.966;16.992;2023-10-08T01:59:49;0;0;0
57049;PMS7003;42935;50.966;16.992;2023-10-08T02:03:04;0;0;0
57049;PMS7003;42935;50.966;16.992;2023-10-08T02:06:22;0;0;0
57049;PMS7003;42935;50.966;16.992;2023-10-08T02:09:37;0;0;0
57049;PMS7003;42935;50.966;16.992;2023-10-08T02:12:55;0;0;0
57049;PMS7003;42935;50.966;16.992;2023-10-08T02:16:45;0;0;0
57049;PMS7003;42935;50.966;16.992;2023-10-08T02:20:03;0;0;0
57049;PMS7003;42935;50.966;16.992;2023-10-08T02:23:15;0;0;0
57049;PMS7003;42935;50.966;16.992;2023-10-08T02:26:33;0;0;0
57049;PMS7003;42935;50.966;16.992;2023-10-08T02:29:50;0;0;0
57049;PMS7003;42935;50.966;16.992;2023-10-08T02:33:07;0;0;0
57049;PMS7003;42935;50.966;16.992;2023-10-08T02:36:26;0;0;0
57049;PMS7003;42935;50.966;16.992;2023-10-08T02:39:43;0;0;0
57049;PMS7003;42935;50.966;16.992;2023-10-08T02:43:00;0;0;0
57049;PMS7003;42935;50.966;16.992;2023-10-08T02:46:23;0;0;0
57049;PMS7003;42935;50.966;16.992;2023-10-08T02:49:44;0;0;0
57049;PMS7003;42935;50.966;16.992;2023-10-08T02:53:01;0;0;0
57049;PMS7003;42935;50.966;16.992;2023-10-08T02:56:26;0;0;0
57049;PMS7003;42935;50.966;16.992;2023-10-08T02:59:47;0;0;0
57049;PMS7003;42935;50.966;16.992;2023-10-08T03:02:58;0;0;0
57049;PMS7003;42935;50.966;16.992;2023-10-08T03:06:21;0;0;0
57049;PMS7003;42935;50.966;16.992;2023-10-08T03:09:35;0;0;0
57049;PMS7003;42935;50.966;16.992;2023-10-08T03:12:52;0;0;0
57049;PMS7003;42935;50.966;16.992;2023-10-08T03:16:11;0;0;0
57049;PMS7003;42935;50.966;16.992;2023-10-08T03:19:27;0;0;0
57049;PMS7003;42935;50.966;16.992;2023-10-08T03:22:44;0;0;0
57049;PMS7003;42935;50.966;16.992;2023-10-08T03:25:57;0;0;0
57049;PMS7003;42935;50.966;16.992;2023-10-08T03:29:18;0;0;0
57049;PMS7003;42935;50.966;16.992;2023-10-08T03:32:33;0;0;0
57049;PMS7003;42935;50.966;16.992;2023-10-08T03:35:52;0;0;0
57049;PMS7003;42935;50.966;16.992;2023-10-08T03:39:10;1;0;0
57049;PMS7003;42935;50.966;16.992;2023-10-08T03:42:31;1;0;0
57049;PMS7003;42935;50.966;16.992;2023-10-08T03:45:51;1;0;0
57049;PMS7003;42935;50.966;16.992;2023-10-08T03:49:10;0;0;0
57049;PMS7003;42935;50.966;16.992;2023-10-08T03:52:37;0;0;0
57049;PMS7003;42935;50.966;16.992;2023-10-08T03:56:01;1;0;0
57049;PMS7003;42935;50.966;16.992;2023-10-08T03:59:21;0;0;0
57049;PMS7003;42935;50.966;16.992;2023-10-08T04:02:46;0;0;0
57049;PMS7003;42935;50.966;16.992;2023-10-08T04:06:15;0;0;0
57049;PMS7003;42935;50.966;16.992;2023-10-08T04:09:39;0;0;0
57049;PMS7003;42935;50.966;16.992;2023-10-08T04:12:55;0;0;0
57049;PMS7003;42935;50.966;16.992;2023-10-08T04:16:10;0;0;0
57049;PMS7003;42935;50.966;16.992;2023-10-08T04:19:29;1;0;0
57049;PMS7003;42935;50.966;16.992;2023-10-08T04:22:49;0;0;0
57049;PMS7003;42935;50.966;16.992;2023-10-08T04:26:04;0;0;0
57049;PMS7003;42935;50.966;16.992;2023-10-08T04:29:18;0;0;0
57049;PMS7003;42935;50.966;16.992;2023-10-08T04:32:39;0;0;0
57049;PMS7003;42935;50.966;16.992;2023-10-08T04:35:58;3;0;0
57049;PMS7003;42935;50.966;16.992;2023-10-08T04:39:15;2;0;0
57049;PMS7003;42935;50.966;16.992;2023-10-08T04:42:39;1;0;0
57049;PMS7003;42935;50.966;16.992;2023-10-08T04:46:02;0;0;0
57049;PMS7003;42935;50.966;16.992;2023-10-08T04:49:28;1;0;0
57049;PMS7003;42935;50.966;16.992;2023-10-08T04:52:47;2;0;0
57049;PMS7003;42935;50.966;16.992;2023-10-08T04:56:14;0;0;0
57049;PMS7003;42935;50.966;16.992;2023-10-08T04:59:34;2;0;0
57049;PMS7003;42935;50.966;16.992;2023-10-08T05:03:20;1;0;0
57049;PMS7003;42935;50.966;16.992;2023-10-08T05:06:50;1;0;0
57049;PMS7003;42935;50.966;16.992;2023-10-08T05:10:17;2;0;0
57049;PMS7003;42935;50.966;16.992;2023-10-08T05:13:42;3;1;1
57049;PMS7003;42935;50.966;16.992;2023-10-08T05:17:10;1;0;0
57049;PMS7003;42935;50.966;16.992;2023-10-08T05:20:38;1;1;1
57049;PMS7003;42935;50.966;16.992;2023-10-08T05:24:01;2;1;1
57049;PMS7003;42935;50.966;16.992;2023-10-08T05:27:57;3;1;1
57049;PMS7003;42935;50.966;16.992;2023-10-08T05:31:22;1;1;0
57049;PMS7003;42935;50.966;16.992;2023-10-08T05:34:47;4;0;0
57049;PMS7003;42935;50.966;16.992;2023-10-08T05:38:18;3;1;1
57049;PMS7003;42935;50.966;16.992;2023-10-08T05:41:46;1;1;0
57049;PMS7003;42935;50.966;16.992;2023-10-08T05:45:10;2;1;0
57049;PMS7003;42935;50.966;16.992;2023-10-08T05:48:34;2;0;0
57049;PMS7003;42935;50.966;16.992;2023-10-08T05:51:57;2;0;0
57049;PMS7003;42935;50.966;16.992;2023-10-08T05:55:20;1;1;0
57049;PMS7003;42935;50.966;16.992;2023-10-08T05:58:40;2;0;0
57049;PMS7003;42935;50.966;16.992;2023-10-08T06:02:40;0;0;0
57049;PMS7003;42935;50.966;16.992;2023-10-08T06:06:09;1;0;0
57049;PMS7003;42935;50.966;16.992;2023-10-08T06:09:34;3;1;1
57049;PMS7003;42935;50.966;16.992;2023-10-08T06:16:26;3;1;0
57049;PMS7003;42935;50.966;16.992;2023-10-08T06:20:26;4;2;1
57049;PMS7003;42935;50.966;16.992;2023-10-08T06:23:45;7;3;2
57049;PMS7003;42935;50.966;16.992;2023-10-08T06:27:01;6;3;2
57049;PMS7003;42935;50.966;16.992;2023-10-08T06:30:16;6;2;2
57049;PMS7003;42935;50.966;16.992;2023-10-08T06:33:38;5;2;2
57049;PMS7003;42935;50.966;16.992;2023-10-08T06:37:24;5;3;2
57049;PMS7003;42935;50.966;16.992;2023-10-08T06:40:39;5;3;2
57049;PMS7003;42935;50.966;16.992;2023-10-08T06:43:55;4;3;2
57049;PMS7003;42935;50.966;16.992;2023-10-08T06:47:22;7;4;3
57049;PMS7003;42935;50.966;16.992;2023-10-08T06:50:36;6;3;2
57049;PMS7003;42935;50.966;16.992;2023-10-08T06:53:55;8;4;3
57049;PMS7003;42935;50.966;16.992;2023-10-08T06:57:15;8;4;3
57049;PMS7003;42935;50.966;16.992;2023-10-08T07:00:35;9;6;3
57049;PMS7003;42935;50.966;16.992;2023-10-08T07:03:58;5;4;3
57049;PMS7003;42935;50.966;16.992;2023-10-08T07:07:19;5;5;4
57049;PMS7003;42935;50.966;16.992;2023-10-08T07:10:36;9;5;3
57049;PMS7003;42935;50.966;16.992;2023-10-08T07:13:52;10;8;6
57049;PMS7003;42935;50.966;16.992;2023-10-08T07:17:11;13;8;6
57049;PMS7003;42935;50.966;16.992;2023-10-08T07:20:30;12;8;5
57049;PMS7003;42935;50.966;16.992;2023-10-08T07:24:00;12;7;4
57049;PMS7003;42935;50.966;16.992;2023-10-08T07:27:24;8;7;5
57049;PMS7003;42935;50.966;16.992;2023-10-08T07:30:48;11;8;6
57049;PMS7003;42935;50.966;16.992;2023-10-08T07:34:06;7;6;3
57049;PMS7003;42935;50.966;16.992;2023-10-08T07:37:34;8;7;5
57049;PMS7003;42935;50.966;16.992;2023-10-08T07:40:49;8;6;5
57049;PMS7003;42935;50.966;16.992;2023-10-08T07:44:05;6;5;4
57049;PMS7003;42935;50.966;16.992;2023-10-08T07:47:23;3;3;2
57049;PMS7003;42935;50.966;16.992;2023-10-08T07:50:44;6;4;2
57049;PMS7003;42935;50.966;16.992;2023-10-08T07:54:32;5;3;3
57049;PMS7003;42935;50.966;16.992;2023-10-08T07:57:51;5;4;3
57049;PMS7003;42935;50.966;16.992;2023-10-08T08:01:08;7;7;4
57049;PMS7003;42935;50.966;16.992;2023-10-08T08:04:23;6;6;4
57049;PMS7003;42935;50.966;16.992;2023-10-08T08:07:48;9;7;4
57049;PMS7003;42935;50.966;16.992;2023-10-08T08:11:06;8;7;4
57049;PMS7003;42935;50.966;16.992;2023-10-08T08:14:28;10;7;5
57049;PMS7003;42935;50.966;16.992;2023-10-08T08:17:50;5;4;3
57049;PMS7003;42935;50.966;16.992;2023-10-08T08:21:03;4;3;3
57049;PMS7003;42935;50.966;16.992;2023-10-08T08:24:28;3;3;2
57049;PMS7003;42935;50.966;16.992;2023-10-08T08:27:50;4;4;3
57049;PMS7003;42935;50.966;16.992;2023-10-08T08:31:05;5;3;2
57049;PMS7003;42935;50.966;16.992;2023-10-08T08:34:30;3;2;2
57049;PMS7003;42935;50.966;16.992;2023-10-08T08:37:43;2;2;1
57049;PMS7003;42935;50.966;16.992;2023-10-08T08:44:28;0;0;0
57049;PMS7003;42935;50.966;16.992;2023-10-08T08:47:47;1;1;0
57049;PMS7003;42935;50.966;16.992;2023-10-08T08:51:04;1;0;0
57049;PMS7003;42935;50.966;16.992;2023-10-08T08:54:22;1;0;0
57049;PMS7003;42935;50.966;16.992;2023-10-08T08:58:11;2;1;0
57049;PMS7003;42935;50.966;16.992;2023-10-08T09:01:25;2;1;0
57049;PMS7003;42935;50.966;16.992;2023-10-08T09:04:40;1;1;0
57049;PMS7003;42935;50.966;16.992;2023-10-08T09:07:57;6;2;1
57049;PMS7003;42935;50.966;16.992;2023-10-08T09:11:19;1;1;1
57049;PMS7003;42935;50.966;16.992;2023-10-08T09:14:33;1;1;0
57049;PMS7003;42935;50.966;16.992;2023-10-08T09:17:50;0;0;0
57049;PMS7003;42935;50.966;16.992;2023-10-08T09:21:10;0;0;0
57049;PMS7003;42935;50.966;16.992;2023-10-08T09:24:23;0;0;0
57049;PMS7003;42935;50.966;16.992;2023-10-08T09:28:09;0;0;0
57049;PMS7003;42935;50.966;16.992;2023-10-08T09:31:59;0;0;0
57049;PMS7003;42935;50.966;16.992;2023-10-08T09:35:15;0;0;0
57049;PMS7003;42935;50.966;16.992;2023-10-08T09:39:03;4;0;0
57049;PMS7003;42935;50.966;16.992;2023-10-08T09:42:49;2;1;1
57049;PMS7003;42935;50.966;16.992;2023-10-08T09:46:08;1;0;0
57049;PMS7003;42935;50.966;16.992;2023-10-08T09:49:37;0;0;0
57049;PMS7003;42935;50.966;16.992;2023-10-08T09:53:36;0;0;0
57049;PMS7003;42935;50.966;16.992;2023-10-08T09:57:02;1;0;0
57049;PMS7003;42935;50.966;16.992;2023-10-08T10:00:55;0;0;0
57049;PMS7003;42935;50.966;16.992;2023-10-08T10:04:09;0;0;0
57049;PMS7003;42935;50.966;16.992;2023-10-08T10:07:29;0;0;0
57049;PMS7003;42935;50.966;16.992;2023-10-08T10:11:13;0;0;0
57049;PMS7003;42935;50.966;16.992;2023-10-08T10:14:58;0;0;0
57049;PMS7003;42935;50.966;16.992;2023-10-08T10:18:14;0;0;0
57049;PMS7003;42935;50.966;16.992;2023-10-08T10:21:36;0;0;0
57049;PMS7003;42935;50.966;16.992;2023-10-08T10:24:52;0;0;0
57049;PMS7003;42935;50.966;16.992;2023-10-08T10:32:07;0;0;0
57049;PMS7003;42935;50.966;16.992;2023-10-08T10:35:35;0;0;0
57049;PMS7003;42935;50.966;16.992;2023-10-08T10:38:55;0;0;0
57049;PMS7003;42935;50.966;16.992;2023-10-08T10:42:10;0;0;0
57049;PMS7003;42935;50.966;16.992;2023-10-08T10:45:31;0;0;0
57049;PMS7003;42935;50.966;16.992;2023-10-08T10:49:26;0;0;0
57049;PMS7003;42935;50.966;16.992;2023-10-08T10:53:21;0;0;0
57049;PMS7003;42935;50.966;16.992;2023-10-08T10:56:39;0;0;0
57049;PMS7003;42935;50.966;16.992;2023-10-08T11:00:03;0;0;0
57049;PMS7003;42935;50.966;16.992;2023-10-08T11:03:28;1;1;1
57049;PMS7003;42935;50.966;16.992;2023-10-08T11:06:50;0;0;0
57049;PMS7003;42935;50.966;16.992;2023-10-08T11:10:12;0;0;0
57049;PMS7003;42935;50.966;16.992;2023-10-08T11:13:34;1;0;0
57049;PMS7003;42935;50.966;16.992;2023-10-08T11:16:52;0;0;0
57049;PMS7003;42935;50.966;16.992;2023-10-08T11:23:41;0;0;0
57049;PMS7003;42935;50.966;16.992;2023-10-08T11:27:42;0;0;0
57049;PMS7003;42935;50.966;16.992;2023-10-08T11:31:03;0;0;0
57049;PMS7003;42935;50.966;16.992;2023-10-08T11:34:30;0;0;0
57049;PMS7003;42935;50.966;16.992;2023-10-08T11:37:52;0;0;0
57049;PMS7003;42935;50.966;16.992;2023-10-08T11:41:14;0;0;0
57049;PMS7003;42935;50.966;16.992;2023-10-08T11:45:08;0;0;0
57049;PMS7003;42935;50.966;16.992;2023-10-08T11:48:27;0;0;0
57049;PMS7003;42935;50.966;16.992;2023-10-08T11:51:43;0;0;0
57049;PMS7003;42935;50.966;16.992;2023-10-08T11:55:09;0;0;0
57049;PMS7003;42935;50.966;16.992;2023-10-08T11:58:34;0;0;0
57049;PMS7003;42935;50.966;16.992;2023-10-08T12:01:49;0;0;0
57049;PMS7003;42935;50.966;16.992;2023-10-08T12:05:08;0;0;0
57049;PMS7003;42935;50.966;16.992;2023-10-08T12:08:32;0;0;0
57049;PMS7003;42935;50.966;16.992;2023-10-08T12:11:52;0;0;0
57049;PMS7003;42935;50.966;16.992;2023-10-08T12:15:06;0;0;0
57049;PMS7003;42935;50.966;16.992;2023-10-08T12:18:25;2;0;0
57049;PMS7003;42935;50.966;16.992;2023-10-08T12:22:10;1;0;0
57049;PMS7003;42935;50.966;16.992;2023-10-08T12:25:32;0;0;0
57049;PMS7003;42935;50.966;16.992;2023-10-08T12:28:45;0;0;0
57049;PMS7003;42935;50.966;16.992;2023-10-08T12:32:03;0;0;0
57049;PMS7003;42935;50.966;16.992;2023-10-08T12:35:29;0;0;0
57049;PMS7003;42935;50.966;16.992;2023-10-08T12:38:43;0;0;0
57049;PMS7003;42935;50.966;16.992;2023-10-08T12:42:02;0;0;0
57049;PMS7003;42935;50.966;16.992;2023-10-08T12:45:20;0;0;0
57049;PMS7003;42935;50.966;16.992;2023-10-08T12:48:44;0;0;0
57049;PMS7003;42935;50.966;16.992;2023-10-08T12:52:04;0;0;0
57049;PMS7003;42935;50.966;16.992;2023-10-08T12:55:23;0;0;0
57049;PMS7003;42935;50.966;16.992;2023-10-08T12:58:42;0;0;0
57049;PMS7003;42935;50.966;16.992;2023-10-08T13:02:28;0;0;0
57049;PMS7003;42935;50.966;16.992;2023-10-08T13:05:42;0;0;0
57049;PMS7003;42935;50.966;16.992;2023-10-08T13:08:58;0;0;0
57049;PMS7003;42935;50.966;16.992;2023-10-08T13:12:17;0;0;0
57049;PMS7003;42935;50.966;16.992;2023-10-08T13:15:33;0;0;0
57049;PMS7003;42935;50.966;16.992;2023-10-08T13:18:45;0;0;0
57049;PMS7003;42935;50.966;16.992;2023-10-08T13:22:00;1;0;0
57049;PMS7003;42935;50.966;16.992;2023-10-08T13:25:19;0;0;0
57049;PMS7003;42935;50.966;16.992;2023-10-08T13:28:34;0;0;0
57049;PMS7003;42935;50.966;16.992;2023-10-08T13:31:50;0;0;0
57049;PMS7003;42935;50.966;16.992;2023-10-08T13:35:07;0;0;0
57049;PMS7003;42935;50.966;16.992;2023-10-08T13:38:22;0;0;0
57049;PMS7003;42935;50.966;16.992;2023-10-08T13:41:37;0;0;0
57049;PMS7003;42935;50.966;16.992;2023-10-08T13:44:55;0;0;0
57049;PMS7003;42935;50.966;16.992;2023-10-08T13:48:16;0;0;0
57049;PMS7003;42935;50.966;16.992;2023-10-08T13:51:32;0;0;0
57049;PMS7003;42935;50.966;16.992;2023-10-08T13:54:49;0;0;0
57049;PMS7003;42935;50.966;16.992;2023-10-08T13:58:05;0;0;0
57049;PMS7003;42935;50.966;16.992;2023-10-08T14:01:19;0;0;0
57049;PMS7003;42935;50.966;16.992;2023-10-08T14:04:36;0;0;0
57049;PMS7003;42935;50.966;16.992;2023-10-08T14:07:53;0;0;0
57049;PMS7003;42935;50.966;16.992;2023-10-08T14:11:11;0;0;0
57049;PMS7003;42935;50.966;16.992;2023-10-08T14:14:24;2;0;0
57049;PMS7003;42935;50.966;16.992;2023-10-08T14:17:45;0;0;0
57049;PMS7003;42935;50.966;16.992;2023-10-08T14:21:12;10;9;6
57049;PMS7003;42935;50.966;16.992;2023-10-08T14:24:27;13;9;6
57049;PMS7003;42935;50.966;16.992;2023-10-08T14:27:50;3;2;1
57049;PMS7003;42935;50.966;16.992;2023-10-08T14:31:07;7;5;4
57049;PMS7003;42935;50.966;16.992;2023-10-08T14:34:30;15;13;11
57049;PMS7003;42935;50.966;16.992;2023-10-08T14:37:53;0;0;0
57049;PMS7003;42935;50.966;16.992;2023-10-08T14:41:21;0;0;0
57049;PMS7003;42935;50.966;16.992;2023-10-08T14:44:46;0;0;0
57049;PMS7003;42935;50.966;16.992;2023-10-08T14:48:01;2;2;1
57049;PMS7003;42935;50.966;16.992;2023-10-08T14:51:29;12;8;4
57049;PMS7003;42935;50.966;16.992;2023-10-08T14:54:43;1;0;0
57049;PMS7003;42935;50.966;16.992;2023-10-08T14:57:54;0;0;0
57049;PMS7003;42935;50.966;16.992;2023-10-08T15:01:12;0;0;0
57049;PMS7003;42935;50.966;16.992;2023-10-08T15:04:30;0;0;0
57049;PMS7003;42935;50.966;16.992;2023-10-08T15:07:52;0;0;0
57049;PMS7003;42935;50.966;16.992;2023-10-08T15:11:08;0;0;0
57049;PMS7003;42935;50.966;16.992;2023-10-08T15:14:21;0;0;0
57049;PMS7003;42935;50.966;16.992;2023-10-08T15:17:43;0;0;0
57049;PMS7003;42935;50.966;16.992;2023-10-08T15:20:58;0;0;0
57049;PMS7003;42935;50.966;16.992;2023-10-08T15:24:19;1;0;0
57049;PMS7003;42935;50.966;16.992;2023-10-08T15:27:37;1;0;0
57049;PMS7003;42935;50.966;16.992;2023-10-08T15:31:01;0;0;0
57049;PMS7003;42935;50.966;16.992;2023-10-08T15:34:18;1;0;0
57049;PMS7003;42935;50.966;16.992;2023-10-08T15:37:41;0;0;0
57049;PMS7003;42935;50.966;16.992;2023-10-08T15:40:55;0;0;0
57049;PMS7003;42935;50.966;16.992;2023-10-08T15:44:10;0;0;0
57049;PMS7003;42935;50.966;16.992;2023-10-08T15:47:24;0;0;0
57049;PMS7003;42935;50.966;16.992;2023-10-08T15:50:41;0;0;0
57049;PMS7003;42935;50.966;16.992;2023-10-08T15:53:59;0;0;0
57049;PMS7003;42935;50.966;16.992;2023-10-08T15:57:14;0;0;0
57049;PMS7003;42935;50.966;16.992;2023-10-08T16:00:31;0;0;0
57049;PMS7003;42935;50.966;16.992;2023-10-08T16:03:46;0;0;0
57049;PMS7003;42935;50.966;16.992;2023-10-08T16:07:03;0;0;0
57049;PMS7003;42935;50.966;16.992;2023-10-08T16:10:16;0;0;0
57049;PMS7003;42935;50.966;16.992;2023-10-08T16:13:33;0;0;0
57049;PMS7003;42935;50.966;16.992;2023-10-08T16:16:50;0;0;0
57049;PMS7003;42935;50.966;16.992;2023-10-08T16:20:03;0;0;0
57049;PMS7003;42935;50.966;16.992;2023-10-08T16:23:29;0;0;0
57049;PMS7003;42935;50.966;16.992;2023-10-08T16:27:15;0;0;0
57049;PMS7003;42935;50.966;16.992;2023-10-08T16:30:34;0;0;0
57049;PMS7003;42935;50.966;16.992;2023-10-08T16:33:55;0;0;0
57049;PMS7003;42935;50.966;16.992;2023-10-08T16:37:09;0;0;0
57049;PMS7003;42935;50.966;16.992;2023-10-08T16:40:33;0;0;0
57049;PMS7003;42935;50.966;16.992;2023-10-08T16:43:48;0;0;0
57049;PMS7003;42935;50.966;16.992;2023-10-08T16:47:08;1;0;0
57049;PMS7003;42935;50.966;16.992;2023-10-08T16:50:26;2;1;1
57049;PMS7003;42935;50.966;16.992;2023-10-08T16:53:44;1;1;1
57049;PMS7003;42935;50.966;16.992;2023-10-08T16:57:06;47;32;19
57049;PMS7003;42935;50.966;16.992;2023-10-08T17:00:27;46;32;20
57049;PMS7003;42935;50.966;16.992;2023-10-08T17:03:49;33;27;17
57049;PMS7003;42935;50.966;16.992;2023-10-08T17:07:10;26;21;12
57049;PMS7003;42935;50.966;16.992;2023-10-08T17:10:27;3;3;2
57049;PMS7003;42935;50.966;16.992;2023-10-08T17:13:42;9;5;4
57049;PMS7003;42935;50.966;16.992;2023-10-08T17:16:57;7;5;4
57049;PMS7003;42935;50.966;16.992;2023-10-08T17:20:19;2;1;1
57049;PMS7003;42935;50.966;16.992;2023-10-08T17:23:37;1;0;0
57049;PMS7003;42935;50.966;16.992;2023-10-08T17:26:57;3;1;1
57049;PMS7003;42935;50.966;16.992;2023-10-08T17:30:14;2;2;2
57049;PMS7003;42935;50.966;16.992;2023-10-08T17:33:35;4;3;2
57049;PMS7003;42935;50.966;16.992;2023-10-08T17:36:54;6;4;2
57049;PMS7003;42935;50.966;16.992;2023-10-08T17:40:12;6;4;3
57049;PMS7003;42935;50.966;16.992;2023-10-08T17:43:30;4;3;2
57049;PMS7003;42935;50.966;16.992;2023-10-08T17:46:48;5;4;3
57049;PMS7003;42935;50.966;16.992;2023-10-08T17:50:06;10;7;4
57049;PMS7003;42935;50.966;16.992;2023-10-08T17:53:24;13;11;6
57049;PMS7003;42935;50.966;16.992;2023-10-08T17:56:37;9;7;5
57049;PMS7003;42935;50.966;16.992;2023-10-08T17:59:57;7;5;4
57049;PMS7003;42935;50.966;16.992;2023-10-08T18:03:15;7;7;5
57049;PMS7003;42935;50.966;16.992;2023-10-08T18:06:36;7;4;3
57049;PMS7003;42935;50.966;16.992;2023-10-08T18:09:53;4;4;3
57049;PMS7003;42935;50.966;16.992;2023-10-08T18:13:06;1;1;0
57049;PMS7003;42935;50.966;16.992;2023-10-08T18:16:24;1;1;0
57049;PMS7003;42935;50.966;16.992;2023-10-08T18:19:42;1;1;1
57049;PMS7003;42935;50.966;16.992;2023-10-08T18:22:59;2;2;2
57049;PMS7003;42935;50.966;16.992;2023-10-08T18:26:12;2;2;1
57049;PMS7003;42935;50.966;16.992;2023-10-08T18:29:34;3;0;0
57049;PMS7003;42935;50.966;16.992;2023-10-08T18:32:50;1;1;1
57049;PMS7003;42935;50.966;16.992;2023-10-08T18:36:11;3;1;1
57049;PMS7003;42935;50.966;16.992;2023-10-08T18:39:26;1;1;1
57049;PMS7003;42935;50.966;16.992;2023-10-08T18:42:39;3;3;2
57049;PMS7003;42935;50.966;16.992;2023-10-08T18:46:03;2;2;2
57049;PMS7003;42935;50.966;16.992;2023-10-08T18:49:20;6;5;3
57049;PMS7003;42935;50.966;16.992;2023-10-08T18:52:42;10;4;4
57049;PMS7003;42935;50.966;16.992;2023-10-08T18:59:26;8;5;3
57049;PMS7003;42935;50.966;16.992;2023-10-08T19:02:46;6;5;3
57049;PMS7003;42935;50.966;16.992;2023-10-08T19:06:01;8;6;4
57049;PMS7003;42935;50.966;16.992;2023-10-08T19:09:18;8;5;4
57049;PMS7003;42935;50.966;16.992;2023-10-08T19:12:35;6;6;4
57049;PMS7003;42935;50.966;16.992;2023-10-08T19:15:52;9;5;5
57049;PMS7003;42935;50.966;16.992;2023-10-08T19:19:11;8;7;5
57049;PMS7003;42935;50.966;16.992;2023-10-08T19:22:28;9;5;4
57049;PMS7003;42935;50.966;16.992;2023-10-08T19:29:08;9;8;5
57049;PMS7003;42935;50.966;16.992;2023-10-08T19:32:26;9;6;5
57049;PMS7003;42935;50.966;16.992;2023-10-08T19:35:45;9;7;4
57049;PMS7003;42935;50.966;16.992;2023-10-08T19:39:04;8;8;5
57049;PMS7003;42935;50.966;16.992;2023-10-08T19:42:23;10;7;5
57049;PMS7003;42935;50.966;16.992;2023-10-08T19:45:44;10;8;6
57049;PMS7003;42935;50.966;16.992;2023-10-08T19:49:07;12;10;7
57049;PMS7003;42935;50.966;16.992;2023-10-08T19:52:28;13;10;6
57049;PMS7003;42935;50.966;16.992;2023-10-08T19:55:45;12;10;6
57049;PMS7003;42935;50.966;16.992;2023-10-08T19:59:07;14;11;7
57049;PMS7003;42935;50.966;16.992;2023-10-08T20:02:24;12;10;6
57049;PMS7003;42935;50.966;16.992;2023-10-08T20:06:10;14;10;7
57049;PMS7003;42935;50.966;16.992;2023-10-08T20:09:27;13;9;6
57049;PMS7003;42935;50.966;16.992;2023-10-08T20:12:42;17;11;8
57049;PMS7003;42935;50.966;16.992;2023-10-08T20:15:59;16;12;8
57049;PMS7003;42935;50.966;16.992;2023-10-08T20:19:20;13;11;7
57049;PMS7003;42935;50.966;16.992;2023-10-08T20:22:42;12;9;5
57049;PMS7003;42935;50.966;16.992;2023-10-08T20:26:09;15;11;7
57049;PMS7003;42935;50.966;16.992;2023-10-08T20:29:34;11;9;6
57049;PMS7003;42935;50.966;16.992;2023-10-08T20:32:49;11;10;6
57049;PMS7003;42935;50.966;16.992;2023-10-08T20:36:10;11;9;5
57049;PMS7003;42935;50.966;16.992;2023-10-08T20:39:32;12;9;6
57049;PMS7003;42935;50.966;16.992;2023-10-08T20:42:57;15;10;6
57049;PMS7003;42935;50.966;16.992;2023-10-08T20:46:16;15;10;6
57049;PMS7003;42935;50.966;16.992;2023-10-08T20:50:02;11;10;7
57049;PMS7003;42935;50.966;16.992;2023-10-08T20:53:25;12;11;7
57049;PMS7003;42935;50.966;16.992;2023-10-08T20:56:42;16;10;7
57049;PMS7003;42935;50.966;16.992;2023-10-08T20:59:59;13;11;7
57049;PMS7003;42935;50.966;16.992;2023-10-08T21:03:16;11;10;7
57049;PMS7003;42935;50.966;16.992;2023-10-08T21:06:31;14;11;8
57049;PMS7003;42935;50.966;16.992;2023-10-08T21:09:48;16;11;7
57049;PMS7003;42935;50.966;16.992;2023-10-08T21:13:05;12;11;6
57049;PMS7003;42935;50.966;16.992;2023-10-08T21:16:22;10;8;6
57049;PMS7003;42935;50.966;16.992;2023-10-08T21:19:41;10;7;6
57049;PMS7003;42935;50.966;16.992;2023-10-08T21:22:55;9;7;5
57049;PMS7003;42935;50.966;16.992;2023-10-08T21:26:08;7;5;4
57049;PMS7003;42935;50.966;16.992;2023-10-08T21:29:24;5;5;4
57049;PMS7003;42935;50.966;16.992;2023-10-08T21:32:42;9;5;4
57049;PMS7003;42935;50.966;16.992;2023-10-08T21:36:03;7;5;4
57049;PMS7003;42935;50.966;16.992;2023-10-08T21:39:18;7;6;3
57049;PMS7003;42935;50.966;16.992;2023-10-08T21:42:40;7;7;4
57049;PMS7003;42935;50.966;16.992;2023-10-08T21:45:58;6;5;4
57049;PMS7003;42935;50.966;16.992;2023-10-08T21:49:16;6;5;4
57049;PMS7003;42935;50.966;16.992;2023-10-08T21:52:35;8;5;4
57049;PMS7003;42935;50.966;16.992;2023-10-08T21:55:54;7;5;5
57049;PMS7003;42935;50.966;16.992;2023-10-08T21:59:11;8;6;4
57049;PMS7003;42935;50.966;16.992;2023-10-08T22:02:28;6;4;3
57049;PMS7003;42935;50.966;16.992;2023-10-08T22:05:56;6;5;3
57049;PMS7003;42935;50.966;16.992;2023-10-08T22:09:12;4;4;3
57049;PMS7003;42935;50.966;16.992;2023-10-08T22:12:29;6;4;3
57049;PMS7003;42935;50.966;16.992;2023-10-08T22:15:47;5;4;3
57049;PMS7003;42935;50.966;16.992;2023-10-08T22:19:08;5;4;3
57049;PMS7003;42935;50.966;16.992;2023-10-08T22:22:26;5;5;3
57049;PMS7003;42935;50.966;16.992;2023-10-08T22:25:50;7;5;4
57049;PMS7003;42935;50.966;16.992;2023-10-08T22:29:04;5;4;3
57049;PMS7003;42935;50.966;16.992;2023-10-08T22:32:25;6;4;3